All current conditions and weather history are recorded live from Forest Drive in Plover Wisconsin. Plover Weather is a Non Profit volunteer public donation funded site.

Live Plover Skycam  Live Plover Skycam




There are no active watches, warnings or advisories

Nearby METAR Reports

   
KISW - Wisconsin Rapids, WI
Updated: Aug 17 2017 7:54 pm
Overcast  
Overcast  
   Wind: WNW 11.5 mph<br />Gust to 11.5 mph
Wind: WNW 11.5 mph
Gust to 11.5 mph
Temperature: 64.4°F
Dew Point: 62.6°F
Humidity: 94%
Barometer: 29.7 inHg
Clouds: Overcast
Visibility: 10 mi
Cloud details: Few Clouds 305 m,
Partly Cloudy 396 m,
Overcast 853 m
KISW 180054Z AUTO 29010G19KT 10SM FEW010 SCT013 OVC028 18/17 A2970 RMK AO2 RAB2357E23 SLP054 P0000 T01830167
KSTE - Stevens Point, WI
Updated: Aug 17 2017 7:55 pm
Overcast  
Overcast  
   Wind: West 13.8 mph<br />Gust to 13.8 mph
Wind: West 13.8 mph
Gust to 13.8 mph
Temperature: 64.4°F
Dew Point: 62.6°F
Humidity: 94%
Barometer: 29.67 inHg
Clouds: Overcast
Visibility: 10 mi
Cloud details: Overcast 427 m
KSTE 180055Z AUTO 26012G17KT 10SM OVC014 18/17 A2967 RMK AO2 T01800165
KMFI - Marshfield, WI
Updated: Aug 17 2017 8:03 pm
Overcast  
Overcast  
   Wind: WNW 11.5 mph<br />Gust to 11.5 mph
Wind: WNW 11.5 mph
Gust to 11.5 mph
Temperature: 62.6°F
Dew Point: 60.8°F
Humidity: 94%
Barometer: 29.7 inHg
Clouds: Overcast
Visibility: 8 mi
Cloud details: Mostly Cloudy 244 m,
Overcast 427 m
KMFI 180103Z AUTO 29010G17KT 8SM BKN008 OVC014 17/16 A2970 RMK AO2 CIG 006V012 T01720156 TSNO
KISW - Friendship, WI
Updated: Aug 17 2017 7:54 pm
Overcast  
Overcast  
   Wind: WNW 11.5 mph<br />Gust to 11.5 mph
Wind: WNW 11.5 mph
Gust to 11.5 mph
Temperature: 64.4°F
Dew Point: 62.6°F
Humidity: 94%
Barometer: 29.7 inHg
Clouds: Overcast
Visibility: 10 mi
Cloud details: Few Clouds 305 m,
Partly Cloudy 396 m,
Overcast 853 m
KISW 180054Z AUTO 29010G19KT 10SM FEW010 SCT013 OVC028 18/17 A2970 RMK AO2 RAB2357E23 SLP054 P0000 T01830167
KSTE - Waupaca, WI
Updated: Aug 17 2017 7:55 pm
Overcast  
Overcast  
   Wind: West 13.8 mph<br />Gust to 13.8 mph
Wind: West 13.8 mph
Gust to 13.8 mph
Temperature: 64.4°F
Dew Point: 62.6°F
Humidity: 94%
Barometer: 29.67 inHg
Clouds: Overcast
Visibility: 10 mi
Cloud details: Overcast 427 m
KSTE 180055Z AUTO 26012G17KT 10SM OVC014 18/17 A2967 RMK AO2 T01800165
KSTE - Custer, WI
Updated: Aug 17 2017 7:55 pm
Overcast  
Overcast  
   Wind: West 13.8 mph<br />Gust to 13.8 mph
Wind: West 13.8 mph
Gust to 13.8 mph
Temperature: 64.4°F
Dew Point: 62.6°F
Humidity: 94%
Barometer: 29.67 inHg
Clouds: Overcast
Visibility: 10 mi
Cloud details: Overcast 427 m
KSTE 180055Z AUTO 26012G17KT 10SM OVC014 18/17 A2967 RMK AO2 T01800165

Script developed by  Saratoga-weather.org Adapted for the template by  Weerstation Leuven

You find our weather info also at:

Weather Underground

Citizen Weather Observer Program (CWOP)

HAMweather, WeatherForYou, PWS Weather

Anything Weather

Equipment we use:

Weather-station
Davis VP2

Weather-program
Weather Display

Weather-server
Dell I7 WorkStation

Provider
FatCow

Davis VP2

Weather Display

Dell I7 WorkStation

FatCow